LTAD/ANK METAR and TAF weather

Enter ICAO airport designator
Station Type Date Time Source
LTAD METAR 2021/07/24 19:50 UTC NOAA

LTAD 241950Z 09013KT CAVOK 23/09 Q1014 NOSIG RMK RWY29 08011G23KT 040V100


Station Type Date Time Source
LTAD Decoded METAR 2021/07/24 19:50 UTC NOAA

Ankara / Etimesgut, Turkey (LTAD) 39-57N 032-41E 806M
Jul 24, 2021 - 03:50 PM EDT / 2021.07.24 1950 UTC
Wind: from the E (090 degrees) at 15 MPH (13 KT):0
Visibility: greater than 7 mile(s):0
Temperature: 73 F (23 C)
Dew Point: 48 F (9 C)
Relative Humidity: 40%
Pressure (altimeter): 29.94 in. Hg (1014 hPa)
ob: LTAD 241950Z 09013KT CAVOK 23/09 Q1014 NOSIG RMK RWY29 08011G23KT 040V100
cycle: 20

Station Type Date Time Source
LTAD TAF UTC NOAA

Error!

Example: see airport list